Latest Weather Observations for Kununurra Airport

IDW60801

Issued at 5:02 am WST Thursday 28 July 2016 (issued every 30 minutes, with the page automatically refreshed every 10 minutes)

About weather observations | Map of weather stations | Latest weather observations for WA | Other Formats
Station Details ID: 002056 Name: KUNUNURRA AERO Lat: -15.78 Lon: 128.71 Height: 44.0 m
Data from the previous 72 hours. | See also: Recent months at Kununurra Airport
Date/Time
WST
Temp
°C
App
Temp
°C
Dew
Point
°C
Rel
Hum
%
Delta-T
°C
Wind Press
QNH
hPa
Press
MSL
hPa
Rain since
9am
mm
Dir  Spd
km/h
Gust
km/h
Spd
kts
Gust
kts
28/05:00am 21.4 15.6 -1.2 22 9.9 SE 19 28 10 15 1018.7 1018.5 0.0
28/04:30am 22.0 15.2 -2.0 20 10.4 ESE 24 41 13 22 1018.3 1018.2 0.0
28/04:00am 22.4 14.4 -2.3 19 10.6 ESE 30 43 16 23 1018.0 1017.9 0.0
28/03:30am 22.6 15.0 -2.2 19 10.7 ESE 28 39 15 21 1017.6 1017.5 0.0
28/03:00am 23.1 15.2 -1.8 19 10.9 SE 30 41 16 22 1017.4 1017.3 0.0
28/02:30am 23.5 16.4 -1.4 19 11.0 SE 26 41 14 22 1017.6 1017.5 0.0
28/02:00am 24.0 15.7 -1.8 18 11.4 SE 32 44 17 24 1017.4 1017.3 0.0
28/01:30am 23.8 17.7 0.2 21 10.8 SE 22 32 12 17 1017.7 1017.6 0.0
28/01:00am 24.3 18.3 1.2 22 10.8 SE 22 33 12 18 1017.7 1017.6 0.0
28/12:30am 24.5 18.6 2.0 23 10.7 SE 22 32 12 17 1017.6 1017.5 0.0
28/12:00am 24.8 18.6 2.3 23 10.8 SE 24 33 13 18 1017.6 1017.5 0.0
 
Date/Time
WST
Temp
°C
App
Temp
°C
Dew
Point
°C
Rel
Hum
%
Delta-T
°C
Wind Press
QNH
hPa
Press
MSL
hPa
Rain since
9am
mm
Dir  Spd
km/h
Gust
km/h
Spd
kts
Gust
kts
27/11:30pm 25.3 19.3 3.3 24 10.8 SE 24 33 13 18 1017.6 1017.5 0.0
27/11:00pm 25.7 19.4 3.6 24 10.9 SE 26 35 14 19 1017.5 1017.4 0.0
27/10:30pm 25.9 20.0 3.8 24 11.0 SE 24 32 13 17 1017.4 1017.3 0.0
27/10:00pm 26.4 20.6 4.2 24 11.1 SE 24 35 13 19 1017.3 1017.2 0.0
27/09:30pm 26.8 21.1 5.1 25 11.1 SE 24 33 13 18 1017.3 1017.2 0.0
27/09:00pm 27.4 22.2 5.6 25 11.3 SE 22 37 12 20 1016.9 1016.8 0.0
27/08:30pm 27.2 22.7 6.0 26 11.1 SE 19 30 10 16 1016.7 1016.6 0.0
27/08:00pm 27.2 23.2 6.6 27 10.8 SE 17 26 9 14 1016.6 1016.5 0.0
27/07:30pm 26.8 23.7 7.3 29 10.4 SE 13 17 7 9 1016.5 1016.4 0.0
27/07:00pm 27.9 24.0 7.2 27 11.1 SE 17 26 9 14 1015.9 1015.8 0.0
27/06:30pm 28.2 24.4 7.4 27 11.2 SE 17 26 9 14 1015.6 1015.5 0.0
27/06:00pm 26.0 22.9 7.1 30 10.0 ESE 13 17 7 9 1015.3 1015.2 0.0
27/05:30pm 28.0 24.7 6.2 25 11.5 ESE 13 17 7 9 1015.0 1014.9 0.0
27/05:00pm 29.3 25.0 5.4 22 12.5 SE 17 24 9 13 1014.8 1014.7 0.0
27/04:30pm 30.1 25.3 4.7 20 13.2 SE 19 30 10 16 1014.5 1014.4 0.0
27/04:00pm 30.4 25.6 4.9 20 13.3 SE 19 24 10 13 1014.4 1014.3 0.0
27/03:30pm 30.8 26.3 6.0 21 13.2 ESE 19 26 10 14 1014.3 1014.2 0.0
27/03:00pm 31.1 25.5 5.5 20 13.5 ESE 24 30 13 16 1014.2 1014.1 0.0
27/02:30pm 31.1 26.0 6.2 21 13.3 SE 22 28 12 15 1014.2 1014.1 0.0
27/02:00pm 31.0 26.1 6.8 22 13.1 ESE 22 32 12 17 1014.2 1014.1 0.0
27/01:30pm 30.9 26.2 6.0 21 13.3 SE 20 30 11 16 1014.5 1014.4 0.0
27/01:00pm 30.5 25.0 5.7 21 13.1 SE 24 37 13 20 1014.9 1014.8 0.0
27/12:30pm 30.8 25.3 6.0 21 13.2 ESE 24 33 13 18 1015.3 1015.2 0.0
27/12:00pm 29.5 23.4 4.9 21 12.7 SE 26 39 14 21 1015.8 1015.7 0.0
27/11:30am 29.8 24.3 5.8 22 12.7 SE 24 33 13 18 1016.4 1016.3 0.0
27/11:00am 29.4 23.1 5.5 22 12.5 E 28 37 15 20 1016.8 1016.7 0.0
27/10:30am 28.6 23.4 5.5 23 12.0 ESE 22 33 12 18 1017.6 1017.5 0.0
27/10:00am 27.9 21.9 5.5 24 11.6 ESE 26 37 14 20 1018.0 1017.9 0.0
27/09:30am 27.9 21.6 5.5 24 11.6 ESE 28 39 15 21 1018.3 1018.2 0.0
27/09:00am 26.7 21.1 5.6 26 10.9 ESE 24 30 13 16 1018.4 1018.3 0.0
27/08:30am 25.7 19.3 5.3 27 10.4 ESE 28 35 15 19 1018.6 1018.4 0.0
27/08:00am 25.4 20.8 5.6 28 10.1 ESE 19 30 10 16 1018.6 1018.4 0.0
27/07:30am 24.8 21.5 6.5 31 9.5 SE 13 22 7 12 1018.3 1018.2 0.0
27/07:00am 22.6 20.3 7.6 38 7.8 SSW 9 11 5 6 1018.0 1017.9 0.0
27/06:30am 21.1 18.6 8.0 43 6.8 SW 11 13 6 7 1017.5 1017.4 0.0
27/06:00am 19.5 16.8 7.3 45 6.2 WSW 11 11 6 6 1017.1 1017.0 0.0
27/05:30am 23.1 20.1 6.0 33 8.7 SE 11 20 6 11 1016.5 1016.4 0.0
27/05:00am 23.6 19.9 6.4 33 8.8 SE 15 20 8 11 1016.0 1015.9 0.0
27/04:30am 23.9 20.2 6.2 32 9.1 SE 15 22 8 12 1015.7 1015.6 0.0
27/04:00am 24.2 19.5 6.0 31 9.3 SE 20 26 11 14 1015.4 1015.3 0.0
27/03:30am 24.5 19.5 6.3 31 9.4 ESE 22 32 12 17 1015.2 1015.1 0.0
27/03:00am 24.3 19.6 6.1 31 9.3 ESE 20 26 11 14 1014.8 1014.7 0.0
27/02:30am 24.5 19.9 6.3 31 9.4 ESE 20 30 11 16 1014.6 1014.5 0.0
27/02:00am 25.0 20.6 6.7 31 9.5 ESE 19 28 10 15 1014.6 1014.5 0.0
27/01:30am 26.3 21.9 7.4 30 10.0 SE 20 32 11 17 1014.6 1014.5 0.0
27/01:00am 25.3 21.3 9.2 36 8.8 SE 20 28 11 15 1014.6 1014.5 0.0
27/12:52am 23.6 21.5 11.0 45 7.0 SE 13 20 7 11 1014.7 1014.6 0.0
27/12:30am 18.0 18.8 13.7 76 2.4 SE 2 6 1 3 1014.6 1014.5 0.0
27/12:00am 19.7 20.1 15.4 76 2.5 SSE 7 9 4 5 1014.7 1014.6 0.0
 
Date/Time
WST
Temp
°C
App
Temp
°C
Dew
Point
°C
Rel
Hum
%
Delta-T
°C
Wind Press
QNH
hPa
Press
MSL
hPa
Rain since
9am
mm
Dir  Spd
km/h
Gust
km/h
Spd
kts
Gust
kts
26/11:30pm 18.9 19.9 13.1 69 3.3 CALM 0 0 0 0 1014.6 1014.5 0.0
26/11:00pm 19.0 19.9 13.0 68 3.4 CALM 0 0 0 0 1014.6 1014.5 0.0
26/10:30pm 19.3 19.2 13.3 68 3.4 S 6 7 3 4 1014.5 1014.4 0.0
26/10:00pm 20.5 20.6 13.9 66 3.8 SSE 6 6 3 3 1014.4 1014.3 0.0
26/09:30pm 20.3 21.0 15.7 75 2.7 SE 6 7 3 4 1014.6 1014.5 0.0
26/09:00pm 20.1 19.7 12.3 61 4.4 SE 6 9 3 5 1014.6 1014.5 0.0
26/08:30pm 20.6 20.2 12.3 59 4.7 ESE 6 7 3 4 1014.3 1014.2 0.0
26/08:00pm 21.3 22.5 13.7 62 4.4 CALM 0 0 0 0 1014.3 1014.2 0.0
26/07:30pm 22.0 23.1 13.6 59 4.9 CALM 0 0 0 0 1014.1 1014.0 0.0
26/07:00pm 22.8 23.6 13.6 56 5.3 SE 2 6 1 3 1013.9 1013.8 0.0
26/06:30pm 24.8 24.0 11.7 44 7.4 SE 7 9 4 5 1013.4 1013.3 0.0
26/06:00pm 24.6 24.7 13.8 51 6.4 SSE 6 7 3 4 1013.0 1012.9 0.0
26/05:30pm 28.9 27.3 10.1 31 10.6 SSE 9 11 5 6 1012.5 1012.4 0.0
26/05:00pm 30.6 28.9 10.0 28 11.7 SSE 9 13 5 7 1012.0 1011.9 0.0
26/04:30pm 32.3 29.7 9.2 24 13.1 SE 13 17 7 9 1011.5 1011.3 0.0
26/04:00pm 32.9 31.2 9.7 24 13.3 SSE 9 11 5 6 1011.4 1011.2 0.0
26/03:30pm 33.3 31.3 8.7 22 13.9 SSE 9 15 5 8 1011.4 1011.2 0.0
26/03:00pm 33.9 31.1 8.5 21 14.3 SE 13 17 7 9 1011.4 1011.2 0.0
26/02:30pm 33.4 30.7 8.8 22 13.9 SE 13 17 7 9 1011.4 1011.2 0.0
26/02:00pm 33.3 31.1 8.0 21 14.1 ESE 9 19 5 10 1011.5 1011.3 0.0
26/01:30pm 33.3 30.5 8.7 22 13.9 SE 13 24 7 13 1011.8 1011.7 0.0
26/01:00pm 33.4 31.4 8.8 22 13.9 ESE 9 17 5 9 1012.3 1012.2 0.0
26/12:30pm 32.6 29.9 8.8 23 13.4 SE 13 19 7 10 1012.8 1012.7 0.0
26/12:00pm 32.5 30.2 10.5 26 12.7 ENE 13 22 7 12 1013.4 1013.3 0.0
26/11:30am 31.4 28.7 10.2 27 12.1 SE 15 20 8 11 1013.9 1013.8 0.0
26/11:00am 31.4 28.4 10.7 28 11.9 SE 17 20 9 11 1014.4 1014.3 0.0
26/10:30am 30.3 27.6 10.3 29 11.4 ESE 15 20 8 11 1015.1 1015.0 0.0
26/10:00am 29.7 27.0 10.3 30 11.0 ESE 15 24 8 13 1015.6 1015.5 0.0
26/09:30am 29.2 25.7 10.3 31 10.7 ESE 19 26 10 14 1016.0 1015.9 0.0
26/09:00am 27.8 23.4 9.1 31 10.3 ESE 22 28 12 15 1016.4 1016.3 0.0
26/08:30am 27.0 22.8 8.4 31 10.1 ESE 20 28 11 15 1016.6 1016.5 0.0
26/08:00am 26.1 24.9 10.3 37 8.8 S 7 15 4 8 1016.5 1016.4 0.0
26/07:30am 24.9 22.6 10.4 40 8.1 S 13 17 7 9 1016.0 1015.9 0.0
26/07:00am 23.9 20.7 9.9 41 7.7 S 17 20 9 11 1015.7 1015.6 0.0
26/06:30am 22.4 20.0 10.2 46 6.7 S 13 15 7 8 1015.7 1015.6 0.0
26/06:00am 18.5 16.8 9.8 57 4.6 S 9 13 5 7 1015.4 1015.3 0.0
26/05:52am 21.4 19.4 10.3 49 6.0 SSE 11 13 6 7 1015.2 1015.1 0.0
26/05:30am 16.4 14.7 10.0 66 3.4 SSW 9 13 5 7 1015.0 1014.9 0.0
26/05:00am 16.5 16.5 11.2 71 2.9 NW 2 9 1 5 1014.7 1014.6 0.0
26/04:30am 17.8 17.9 10.2 61 4.0 CALM 0 0 0 0 1014.4 1014.3 0.0
26/04:00am 19.3 18.0 9.8 54 5.1 SSE 7 11 4 6 1014.2 1014.1 0.0
26/03:30am 23.6 21.9 8.5 38 8.1 S 7 11 4 6 1013.9 1013.8 0.0
26/03:00am 19.5 17.6 9.1 51 5.5 NW 9 11 5 6 1013.9 1013.8 0.0
26/02:51am 21.1 18.6 8.4 44 6.7 E 11 17 6 9 1013.8 1013.7 0.0
26/02:30am 26.3 22.6 7.8 31 9.9 SE 17 22 9 12 1013.6 1013.5 0.0
26/02:00am 22.0 19.3 8.9 43 7.0 ESE 13 17 7 9 1013.6 1013.5 0.0
26/01:30am 19.8 19.0 11.8 60 4.4 SSE 7 11 4 6 1013.7 1013.6 0.0
26/01:00am 18.2 17.7 12.2 68 3.3 S 6 9 3 5 1013.7 1013.6 0.0
26/12:30am 18.0 17.8 12.9 72 2.9 S 6 9 3 5 1013.7 1013.6 0.0
26/12:00am 18.3 18.3 12.3 68 3.3 SE 4 7 2 4 1013.8 1013.7 0.0
 
Date/Time
WST
Temp
°C
App
Temp
°C
Dew
Point
°C
Rel
Hum
%
Delta-T
°C
Wind Press
QNH
hPa
Press
MSL
hPa
Rain since
9am
mm
Dir  Spd
km/h
Gust
km/h
Spd
kts
Gust
kts
25/11:30pm 19.3 19.0 12.8 66 3.7 SE 6 7 3 4 1013.7 1013.6 0.0
25/11:00pm 19.0 18.6 13.0 68 3.4 SE 7 7 4 4 1013.6 1013.5 0.0
25/10:30pm 19.1 18.9 11.7 62 4.1 S 4 6 2 3 1013.6 1013.5 0.0
25/10:00pm 20.0 20.1 11.5 58 4.7 SW 2 6 1 3 1013.7 1013.6 0.0
25/09:30pm 19.4 18.6 11.2 59 4.5 SE 6 9 3 5 1013.7 1013.6 0.0
25/09:00pm 20.1 21.0 12.8 63 4.1 CALM 0 0 0 0 1013.6 1013.5 0.0
25/08:30pm 20.4 21.0 11.9 58 4.7 CALM 0 0 0 0 1013.5 1013.4 0.0
25/08:00pm 21.1 21.6 11.7 55 5.2 CALM 0 0 0 0 1013.4 1013.3 0.0
25/07:30pm 22.4 23.5 13.5 57 5.2 CALM 0 0 0 0 1013.4 1013.3 0.0
25/07:00pm 23.4 24.5 13.6 54 5.7 CALM 0 0 0 0 1012.9 1012.8 0.0
25/06:30pm 25.3 25.4 13.8 49 6.8 SE 6 7 3 4 1012.5 1012.4 0.0
25/06:00pm 27.2 25.9 10.0 34 9.6 SSE 7 11 4 6 1012.1 1012.0 0.0
25/05:30pm 29.6 28.0 10.2 30 11.0 SSE 9 11 5 6 1011.8 1011.7 0.0
25/05:00pm 31.5 30.0 8.5 24 12.8 SE 6 7 3 4 1011.4 1011.2 0.0
25/04:30pm 33.1 31.1 8.5 22 13.8 SSE 9 13 5 7 1011.2 1011.0 0.0
25/04:00pm 34.0 31.4 7.9 20 14.6 SE 11 15 6 8 1011.0 1010.8 0.0
25/03:30pm 34.4 31.7 7.5 19 14.9 SE 11 17 6 9 1010.9 1010.7 0.0
25/03:00pm 34.4 30.6 7.5 19 15.0 ESE 17 22 9 12 1010.8 1010.6 0.0
25/02:30pm 34.5 30.9 8.3 20 14.7 SSE 17 26 9 14 1010.8 1010.6 0.0
25/02:00pm 34.9 31.4 8.6 20 14.9 E 17 24 9 13 1011.0 1010.8 0.0
25/01:30pm 34.6 31.0 8.4 20 14.8 SE 17 28 9 15 1011.4 1011.2 0.0
25/01:00pm 34.6 31.0 8.4 20 14.8 ESE 17 26 9 14 1011.9 1011.8 0.0
25/12:30pm 34.6 31.0 8.4 20 14.8 ESE 17 30 9 16 1012.4 1012.3 0.0
25/12:00pm 34.2 30.7 8.8 21 14.4 ESE 17 26 9 14 1012.8 1012.7 0.0
25/11:30am 34.6 31.2 9.1 21 14.5 ESE 17 24 9 13 1013.3 1013.2 0.0
25/11:00am 33.7 30.4 9.7 23 13.8 SE 17 24 9 13 1014.0 1013.9 0.0
25/10:30am 33.0 29.4 9.7 24 13.3 SE 19 28 10 15 1014.6 1014.5 0.0
25/10:00am 32.3 26.8 9.2 24 13.0 E 28 35 15 19 1014.9 1014.8 0.0
25/09:30am 31.7 26.9 8.7 24 12.9 ESE 24 30 13 16 1015.2 1015.1 0.0
25/09:00am 31.3 27.3 8.3 24 12.7 ESE 19 24 10 13 1015.5 1015.4 0.0
25/08:30am 29.7 26.9 8.7 27 11.6 SE 13 22 7 12 1015.4 1015.3 0.0
25/08:00am 27.2 25.8 10.8 36 9.3 SSE 9 15 5 8 1015.2 1015.1 0.0
25/07:30am 25.8 25.0 11.6 41 8.1 SSE 7 9 4 5 1015.2 1015.1 0.0
25/07:00am 21.5 22.3 12.4 56 5.1 CALM 0 0 0 0 1015.0 1014.9 0.0
25/06:30am 17.9 18.5 13.0 73 2.8 NE 2 6 1 3 1014.9 1014.8 0.0
25/06:00am 16.5 17.5 13.2 81 1.8 CALM 0 6 0 3 1014.5 1014.4 0.0
25/05:30am 16.9 17.8 12.8 77 2.3 CALM 0 0 0 0 1014.0 1013.9 0.0

Other Formats:

Comma delimited format used in spreadsheet applications
http://www.bom.gov.au/fwo/IDW60801/IDW60801.94216.axf

JavaScript Object Notation format (JSON) in row-major order
http://www.bom.gov.au/fwo/IDW60801/IDW60801.94216.json